createdAt,value
2023-05-06T00:00:20.962Z,99973.94
2023-05-06T00:02:48.426Z,99996.97
2023-05-06T00:05:18.619Z,99993.19
2023-05-06T00:07:46.679Z,99995.84
2023-05-06T00:10:13.853Z,99989.53
2023-05-06T00:12:41.028Z,99989.16
2023-05-06T00:15:08.672Z,99999.56
2023-05-06T00:17:35.942Z,99998.53
2023-05-06T00:20:03.874Z,100004.63
2023-05-06T00:22:31.940Z,100007.16
2023-05-06T00:24:59.026Z,99987.66
2023-05-06T00:27:26.120Z,99989.94
2023-05-06T00:29:53.128Z,100009.31
2023-05-06T00:32:20.158Z,100011.78
2023-05-06T00:34:47.367Z,99989.56
2023-05-06T00:37:14.504Z,99984.00
2023-05-06T00:39:41.606Z,100018.13
2023-05-06T00:42:08.644Z,100016.91
2023-05-06T00:44:36.691Z,100017.66
2023-05-06T00:47:04.840Z,99999.72
2023-05-06T00:49:32.257Z,100021.72
2023-05-06T00:52:00.053Z,100016.38
2023-05-06T00:54:27.791Z,100016.28
2023-05-06T00:56:55.044Z,100003.44
2023-05-06T00:59:23.265Z,99998.00
2023-05-06T01:01:52.358Z,100024.47
2023-05-06T01:04:20.259Z,100021.81
2023-05-06T01:07:06.406Z,100018.94
2023-05-06T01:09:58.689Z,100025.56
2023-05-06T01:12:42.966Z,100017.72
2023-05-06T01:15:24.462Z,100025.44
2023-05-06T01:17:54.657Z,100013.03
2023-05-06T01:20:21.904Z,100028.59
2023-05-06T01:22:50.101Z,100014.25
2023-05-06T01:25:22.608Z,100015.22
2023-05-06T01:27:50.692Z,100026.38
2023-05-06T01:30:19.884Z,100026.34
2023-05-06T01:32:53.038Z,100027.91
2023-05-06T01:35:24.404Z,100024.38
2023-05-06T01:38:06.306Z,100031.91
2023-05-06T01:40:34.135Z,100005.44
2023-05-06T01:43:05.047Z,100026.72
2023-05-06T01:45:35.803Z,100034.44
2023-05-06T01:48:05.121Z,100025.56
2023-05-06T01:50:33.307Z,99994.97
2023-05-06T01:53:03.385Z,100018.06
2023-05-06T01:55:30.700Z,100026.91
2023-05-06T01:57:57.836Z,100032.09
2023-05-06T02:00:26.713Z,100036.50
2023-05-06T02:02:54.125Z,100020.56
2023-05-06T02:05:21.547Z,100027.56
2023-05-06T02:07:52.915Z,100029.25
2023-05-06T02:10:20.561Z,100024.88
2023-05-06T02:12:54.796Z,100033.44
2023-05-06T02:15:24.544Z,100035.09
2023-05-06T02:17:52.792Z,100041.09
2023-05-06T02:20:20.121Z,100044.28
2023-05-06T02:22:47.669Z,100054.88
2023-05-06T02:25:14.904Z,100059.25
2023-05-06T02:27:42.028Z,100063.53
2023-05-06T02:30:09.343Z,100051.91
2023-05-06T02:32:36.713Z,100063.53
2023-05-06T02:35:04.324Z,100069.63
2023-05-06T02:37:31.446Z,100067.03
2023-05-06T02:40:00.578Z,100070.44
2023-05-06T02:42:27.760Z,100059.91
2023-05-06T02:44:54.869Z,100045.97
2023-05-06T02:47:22.032Z,100049.41
2023-05-06T02:49:49.098Z,100065.38
2023-05-06T02:52:16.278Z,100066.34
2023-05-06T02:54:43.255Z,100072.28
2023-05-06T02:57:10.288Z,100058.19
2023-05-06T02:59:37.388Z,100060.41
2023-05-06T03:02:04.417Z,100073.56
2023-05-06T03:04:31.985Z,100073.56
2023-05-06T03:06:59.202Z,100066.78
2023-05-06T03:09:26.482Z,100074.00
2023-05-06T03:11:54.395Z,100081.84
2023-05-06T03:14:21.700Z,100072.38
2023-05-06T03:16:50.248Z,100079.47
2023-05-06T03:19:17.484Z,100087.16
2023-05-06T03:21:45.410Z,100078.03
2023-05-06T03:24:12.515Z,100073.25
2023-05-06T03:26:39.665Z,100095.75
2023-05-06T03:29:08.293Z,100097.78
2023-05-06T03:31:36.534Z,100088.94
2023-05-06T03:34:03.640Z,100097.03
2023-05-06T03:36:31.927Z,100097.94
2023-05-06T03:38:59.686Z,100085.66
2023-05-06T03:41:27.124Z,100101.47
2023-05-06T03:43:55.904Z,100085.38
2023-05-06T03:46:26.806Z,100106.66
2023-05-06T03:48:54.467Z,100106.81
2023-05-06T03:51:21.864Z,100113.28
2023-05-06T03:53:48.861Z,100115.31
2023-05-06T03:56:18.364Z,100109.56
2023-05-06T03:58:49.171Z,100113.31
2023-05-06T04:01:18.354Z,100104.69
2023-05-06T04:03:46.023Z,100107.22
2023-05-06T04:06:13.674Z,100103.69
2023-05-06T04:08:40.784Z,100108.97
2023-05-06T04:11:08.684Z,100109.91
2023-05-06T04:13:37.241Z,100115.91
2023-05-06T04:16:10.060Z,100117.53
2023-05-06T04:18:41.391Z,100106.72
2023-05-06T04:21:13.989Z,100102.50
2023-05-06T04:23:44.421Z,100086.44
2023-05-06T04:26:15.629Z,100118.69
2023-05-06T04:28:44.629Z,100090.84
2023-05-06T04:31:14.713Z,100108.03
2023-05-06T04:33:47.665Z,100126.91
2023-05-06T04:36:17.380Z,100126.91
2023-05-06T04:39:08.893Z,100133.91
2023-05-06T04:41:36.972Z,100125.19
2023-05-06T04:44:05.353Z,100123.09
2023-05-06T04:46:34.120Z,100107.38
2023-05-06T04:49:03.343Z,100130.78
2023-05-06T04:51:31.692Z,100116.91
2023-05-06T04:53:59.654Z,100126.22
2023-05-06T04:56:26.928Z,100129.16
2023-05-06T04:58:54.419Z,100125.81
2023-05-06T05:01:22.484Z,100120.19
2023-05-06T05:03:50.569Z,100128.63
2023-05-06T05:06:20.655Z,100134.63
2023-05-06T05:08:48.074Z,100113.31
2023-05-06T05:11:15.355Z,100125.69
2023-05-06T05:13:43.127Z,100127.91
2023-05-06T05:16:10.210Z,100131.63
2023-05-06T05:18:40.270Z,100131.25
2023-05-06T05:21:14.715Z,100129.56
2023-05-06T05:23:42.066Z,100129.56
2023-05-06T05:26:10.134Z,100143.75
2023-05-06T05:28:37.312Z,100145.44
2023-05-06T05:31:06.087Z,100146.94
2023-05-06T05:33:36.232Z,100106.00
2023-05-06T05:36:08.110Z,100140.38
2023-05-06T05:38:36.492Z,100124.84
2023-05-06T05:41:04.612Z,100144.22
2023-05-06T05:43:31.897Z,100141.41
2023-05-06T05:46:01.262Z,100146.41
2023-05-06T05:48:32.839Z,100144.78
2023-05-06T05:51:02.454Z,100133.38
2023-05-06T05:53:29.978Z,100136.22
2023-05-06T05:55:57.363Z,100144.50
2023-05-06T05:58:24.985Z,100143.50
2023-05-06T06:00:54.269Z,100143.97
2023-05-06T06:03:21.557Z,100129.00
2023-05-06T06:05:49.553Z,100121.88
2023-05-06T06:08:18.877Z,100152.75
2023-05-06T06:10:47.522Z,100152.66
2023-05-06T06:13:19.246Z,100138.59
2023-05-06T06:15:46.860Z,100139.38
2023-05-06T06:18:14.279Z,100142.84
2023-05-06T06:20:41.329Z,100150.66
2023-05-06T06:23:09.779Z,100164.09
2023-05-06T06:25:37.140Z,100121.88
2023-05-06T06:28:04.446Z,100141.25
2023-05-06T06:30:31.834Z,100152.59
2023-05-06T06:33:01.418Z,100150.06
2023-05-06T06:35:29.649Z,100146.53
2023-05-06T06:37:56.783Z,100155.81
2023-05-06T06:40:24.000Z,100154.66
2023-05-06T06:42:51.385Z,100150.84
2023-05-06T06:45:36.960Z,100137.78
2023-05-06T06:48:04.324Z,100162.72
2023-05-06T06:50:31.511Z,100163.56
2023-05-06T06:52:58.541Z,100155.25
2023-05-06T06:55:25.989Z,100165.91
2023-05-06T06:57:53.098Z,100170.72
2023-05-06T07:00:20.152Z,100164.13
2023-05-06T07:02:48.731Z,100158.81
2023-05-06T07:05:16.045Z,100163.75
2023-05-06T07:07:43.136Z,100156.53
2023-05-06T07:10:10.869Z,100181.75
2023-05-06T07:12:37.990Z,100172.88
2023-05-06T07:15:07.169Z,100183.97
2023-05-06T07:17:34.405Z,100179.25
2023-05-06T07:20:01.532Z,100178.66
2023-05-06T07:22:31.222Z,100192.97
2023-05-06T07:24:58.360Z,100200.38
2023-05-06T07:27:27.424Z,100191.06
2023-05-06T07:29:54.519Z,100209.59
2023-05-06T07:32:21.726Z,100197.16
2023-05-06T07:34:49.066Z,100204.75
2023-05-06T07:37:16.087Z,100202.38
2023-05-06T07:39:43.366Z,100203.56
2023-05-06T07:42:13.167Z,100206.06
2023-05-06T07:44:40.578Z,100191.84
2023-05-06T07:47:08.100Z,100211.44
2023-05-06T07:49:35.635Z,100195.25
2023-05-06T07:52:03.781Z,100173.50
2023-05-06T07:54:31.861Z,100213.16
2023-05-06T07:56:59.147Z,100200.66
2023-05-06T07:59:26.273Z,100212.38
2023-05-06T08:01:53.443Z,100218.69
2023-05-06T08:04:20.697Z,100206.56
2023-05-06T08:06:47.850Z,100217.75
2023-05-06T08:09:22.299Z,100225.28
2023-05-06T08:11:50.969Z,100227.28
2023-05-06T08:14:18.142Z,100220.72
2023-05-06T08:16:45.517Z,100218.53
2023-05-06T08:19:14.462Z,100223.81
2023-05-06T08:21:42.284Z,100230.66
2023-05-06T08:24:11.086Z,100193.13
2023-05-06T08:26:38.228Z,100215.06
2023-05-06T08:29:05.282Z,100214.19
2023-05-06T08:31:32.597Z,100223.28
2023-05-06T08:33:59.767Z,100213.41
2023-05-06T08:36:27.632Z,100206.75
2023-05-06T08:38:54.691Z,100220.38
2023-05-06T08:41:22.407Z,100223.88
2023-05-06T08:43:50.875Z,100230.31
2023-05-06T08:46:18.294Z,100208.72
2023-05-06T08:48:45.915Z,100231.88
2023-05-06T08:51:17.966Z,100228.13
2023-05-06T08:53:48.934Z,100229.97
2023-05-06T08:56:16.907Z,100224.66
2023-05-06T08:58:46.810Z,100228.38
2023-05-06T09:01:15.289Z,100218.00
2023-05-06T09:03:42.453Z,100213.41
2023-05-06T09:06:10.100Z,100214.34
2023-05-06T09:08:37.224Z,100217.38
2023-05-06T09:11:19.598Z,100215.13
2023-05-06T09:13:46.996Z,100201.72
2023-05-06T09:16:28.555Z,100215.13
2023-05-06T09:18:55.931Z,100213.75
2023-05-06T09:21:32.334Z,100206.25
2023-05-06T09:24:00.009Z,100222.88
2023-05-06T09:26:29.731Z,100213.03
2023-05-06T09:28:58.487Z,100204.56
2023-05-06T09:31:26.582Z,100193.13
2023-05-06T09:33:55.238Z,100219.28
2023-05-06T09:36:23.793Z,100204.19
2023-05-06T09:38:51.231Z,100225.47
2023-05-06T09:41:21.153Z,100220.31
2023-05-06T09:43:49.508Z,100208.75
2023-05-06T09:46:17.430Z,100212.88
2023-05-06T09:48:46.151Z,100216.44
2023-05-06T09:51:13.673Z,100231.13
2023-05-06T09:53:41.747Z,100209.84
2023-05-06T09:56:09.103Z,100208.84
2023-05-06T09:58:37.292Z,100219.91
2023-05-06T10:01:06.064Z,100185.75
2023-05-06T10:03:34.766Z,100193.69
2023-05-06T10:06:05.079Z,100217.50
2023-05-06T10:08:36.980Z,100189.31
2023-05-06T10:11:06.626Z,100206.06
2023-05-06T10:13:35.835Z,100208.66
2023-05-06T10:16:03.284Z,100205.75
2023-05-06T10:18:31.165Z,100198.91
2023-05-06T10:21:06.669Z,100208.72
2023-05-06T10:23:49.234Z,100213.78
2023-05-06T10:26:18.319Z,100212.56
2023-05-06T10:28:49.803Z,100227.91
2023-05-06T10:31:17.113Z,100237.19
2023-05-06T10:33:49.329Z,100234.84
2023-05-06T10:36:28.796Z,100237.16
2023-05-06T10:38:58.751Z,100230.13
2023-05-06T10:41:28.308Z,100217.47
2023-05-06T10:44:00.260Z,100227.94
2023-05-06T10:46:31.052Z,100223.44
2023-05-06T10:49:06.849Z,100224.22
2023-05-06T10:51:35.515Z,100223.09
2023-05-06T10:54:07.502Z,100235.06
2023-05-06T10:56:36.532Z,100220.63
2023-05-06T10:59:12.654Z,100230.91
2023-05-06T11:01:42.164Z,100237.53
2023-05-06T11:04:14.589Z,100212.34
2023-05-06T11:06:46.800Z,100210.97
2023-05-06T11:09:17.990Z,100244.69
2023-05-06T11:11:47.923Z,100229.66
2023-05-06T11:14:24.614Z,100221.75
2023-05-06T11:16:53.147Z,100205.91
2023-05-06T11:19:23.734Z,100215.00
2023-05-06T11:21:52.773Z,100238.09
2023-05-06T11:24:31.053Z,100208.66
2023-05-06T11:27:00.078Z,100234.00
2023-05-06T11:29:27.262Z,100222.56
2023-05-06T11:31:54.432Z,100221.53
2023-05-06T11:34:29.179Z,100229.06
2023-05-06T11:37:07.188Z,100236.19
2023-05-06T11:39:40.507Z,100219.47
2023-05-06T11:42:09.209Z,100230.81
2023-05-06T11:44:39.180Z,100222.56
2023-05-06T11:47:08.381Z,100230.50
2023-05-06T11:49:43.124Z,100223.22
2023-05-06T11:52:11.632Z,100235.38
2023-05-06T11:54:40.848Z,100226.38
2023-05-06T11:57:09.664Z,100237.81
2023-05-06T11:59:41.301Z,100230.56
2023-05-06T12:02:10.862Z,100240.00
2023-05-06T12:04:38.996Z,100243.53
2023-05-06T12:07:07.772Z,100241.03
2023-05-06T12:09:37.160Z,100188.41
2023-05-06T12:12:05.884Z,100227.03
2023-05-06T12:14:33.534Z,100231.41
2023-05-06T12:17:00.599Z,100234.16
2023-05-06T12:19:29.275Z,100231.31
2023-05-06T12:21:57.558Z,100224.13
2023-05-06T12:24:31.324Z,100220.41
2023-05-06T12:26:59.084Z,100211.00
2023-05-06T12:29:26.172Z,100226.03
2023-05-06T12:32:10.727Z,100201.22
2023-05-06T12:34:41.689Z,100229.84
2023-05-06T12:37:09.194Z,100216.97
2023-05-06T12:39:38.122Z,100244.63
2023-05-06T12:42:06.780Z,100240.50
2023-05-06T12:44:37.802Z,100243.53
2023-05-06T12:47:08.746Z,100243.66
2023-05-06T12:49:55.268Z,100235.22
2023-05-06T12:52:23.908Z,100227.69
2023-05-06T12:54:52.929Z,100250.38
2023-05-06T12:57:21.244Z,100233.69
2023-05-06T12:59:49.741Z,100248.81
2023-05-06T13:02:17.056Z,100241.66
2023-05-06T13:04:45.396Z,100247.13
2023-05-06T13:07:12.814Z,100239.56
2023-05-06T13:09:40.091Z,100237.72
2023-05-06T13:12:07.519Z,100241.88
2023-05-06T13:14:35.882Z,100236.13
2023-05-06T13:17:07.025Z,100244.16
2023-05-06T13:19:34.412Z,100216.41
2023-05-06T13:22:02.122Z,100232.44
2023-05-06T13:24:29.835Z,100243.50
2023-05-06T13:26:57.585Z,100245.50
2023-05-06T13:29:25.175Z,100215.19
2023-05-06T13:31:52.824Z,100229.75
2023-05-06T13:34:19.961Z,100242.69
2023-05-06T13:36:49.365Z,100240.16
2023-05-06T13:39:16.813Z,100237.59
2023-05-06T13:41:47.061Z,100251.84
2023-05-06T13:44:14.410Z,100237.00
2023-05-06T13:46:44.010Z,100262.72
2023-05-06T13:49:14.039Z,100269.28
2023-05-06T13:51:41.181Z,100263.84
2023-05-06T13:54:08.284Z,100253.06
2023-05-06T13:56:35.596Z,100264.16
2023-05-06T13:59:02.801Z,100270.13
2023-05-06T14:01:30.134Z,100257.94
2023-05-06T14:03:57.418Z,100257.16
2023-05-06T14:06:24.738Z,100257.16
2023-05-06T14:08:51.982Z,100268.00
2023-05-06T14:11:19.097Z,100271.81
2023-05-06T14:13:46.179Z,100275.34
2023-05-06T14:16:13.207Z,100255.50
2023-05-06T14:18:40.574Z,100256.84
2023-05-06T14:21:07.656Z,100268.53
2023-05-06T14:23:35.045Z,100256.59
2023-05-06T14:26:02.196Z,100256.56
2023-05-06T14:28:29.193Z,100258.34
2023-05-06T14:30:58.192Z,100242.44
2023-05-06T14:33:25.572Z,100264.97
2023-05-06T14:35:53.077Z,100257.56
2023-05-06T14:38:20.228Z,100262.41
2023-05-06T14:40:47.374Z,100268.38
2023-05-06T14:43:14.392Z,100259.16
2023-05-06T14:45:41.467Z,100254.56
2023-05-06T14:48:08.855Z,100252.81
2023-05-06T14:50:36.023Z,100251.00
2023-05-06T14:53:04.052Z,100249.34
2023-05-06T14:55:31.457Z,100264.94
2023-05-06T14:57:58.596Z,100261.44
2023-05-06T15:00:25.784Z,100269.97
2023-05-06T15:02:53.013Z,100254.50
2023-05-06T15:05:20.347Z,100274.91
2023-05-06T15:07:47.645Z,100263.03
2023-05-06T15:10:15.320Z,100275.91
2023-05-06T15:12:42.714Z,100281.84
2023-05-06T15:15:10.291Z,100265.34
2023-05-06T15:17:37.826Z,100273.00
2023-05-06T15:20:06.947Z,100271.09
2023-05-06T15:22:34.210Z,100270.25
2023-05-06T15:25:03.073Z,100281.63
2023-05-06T15:27:32.375Z,100281.63
2023-05-06T15:30:04.273Z,100261.25
2023-05-06T15:32:34.128Z,100258.25
2023-05-06T15:35:01.407Z,100267.19
2023-05-06T15:37:33.523Z,100284.75
2023-05-06T15:40:01.227Z,100293.59
2023-05-06T15:42:29.949Z,100270.84
2023-05-06T15:44:57.984Z,100270.75
2023-05-06T15:47:25.135Z,100281.31
2023-05-06T15:49:55.053Z,100259.94
2023-05-06T15:52:23.592Z,100286.69
2023-05-06T15:54:58.939Z,100279.66
2023-05-06T15:57:30.057Z,100285.47
2023-05-06T15:59:57.285Z,100280.97
2023-05-06T16:02:27.114Z,100268.53
2023-05-06T16:04:54.975Z,100284.31
2023-05-06T16:07:22.199Z,100276.28
2023-05-06T16:09:50.288Z,100272.09
2023-05-06T16:12:18.901Z,100288.81
2023-05-06T16:14:46.069Z,100262.25
2023-05-06T16:17:13.048Z,100287.00
2023-05-06T16:19:42.875Z,100293.09
2023-05-06T16:22:10.101Z,100290.25
2023-05-06T16:24:37.292Z,100293.63
2023-05-06T16:27:05.820Z,100289.03
2023-05-06T16:29:32.948Z,100294.06
2023-05-06T16:32:00.732Z,100289.63
2023-05-06T16:34:28.079Z,100289.09
2023-05-06T16:36:55.229Z,100310.84
2023-05-06T16:39:22.240Z,100309.78
2023-05-06T16:41:49.254Z,100312.16
2023-05-06T16:44:16.454Z,100307.63
2023-05-06T16:46:43.929Z,100278.84
2023-05-06T16:49:11.162Z,100300.75
2023-05-06T16:51:38.253Z,100325.09
2023-05-06T16:54:05.705Z,100310.06
2023-05-06T16:56:48.029Z,100316.72
2023-05-06T16:59:21.395Z,100324.25
2023-05-06T17:01:49.726Z,100328.63
2023-05-06T17:04:17.014Z,100308.19
2023-05-06T17:06:44.674Z,100319.53
2023-05-06T17:09:12.334Z,100324.38
2023-05-06T17:11:39.424Z,100342.88
2023-05-06T17:14:06.584Z,100333.97
2023-05-06T17:16:33.753Z,100347.72
2023-05-06T17:19:01.331Z,100326.47
2023-05-06T17:21:28.528Z,100351.81
2023-05-06T17:23:56.226Z,100330.44
2023-05-06T17:26:23.346Z,100345.53
2023-05-06T17:28:51.136Z,100351.53
2023-05-06T17:31:18.989Z,100351.19
2023-05-06T17:33:46.167Z,100348.44
2023-05-06T17:36:14.074Z,100351.91
2023-05-06T17:38:41.243Z,100364.94
2023-05-06T17:41:08.872Z,100358.63
2023-05-06T17:43:36.099Z,100366.69
2023-05-06T17:46:03.183Z,100328.44
2023-05-06T17:48:31.231Z,100370.16
2023-05-06T17:51:02.539Z,100372.72
2023-05-06T17:53:30.042Z,100377.72
2023-05-06T17:55:57.137Z,100370.81
2023-05-06T17:58:24.167Z,100365.59
2023-05-06T18:00:51.343Z,100384.69
2023-05-06T18:03:18.642Z,100375.94
2023-05-06T18:05:46.227Z,100386.19
2023-05-06T18:08:13.457Z,100384.34
2023-05-06T18:10:41.578Z,100380.69
2023-05-06T18:13:09.254Z,100381.59
2023-05-06T18:15:36.306Z,100380.81
2023-05-06T18:18:03.572Z,100363.03
2023-05-06T18:20:30.899Z,100393.66
2023-05-06T18:22:58.816Z,100370.63
2023-05-06T18:25:26.139Z,100401.31
2023-05-06T18:27:53.160Z,100408.19
2023-05-06T18:30:20.224Z,100394.09
2023-05-06T18:32:49.357Z,100404.25
2023-05-06T18:35:18.338Z,100401.28
2023-05-06T18:37:45.413Z,100405.44
2023-05-06T18:40:13.935Z,100394.53
2023-05-06T18:42:41.525Z,100399.03
2023-05-06T18:45:09.337Z,100384.00
2023-05-06T18:47:37.766Z,100407.75
2023-05-06T18:50:05.244Z,100390.84
2023-05-06T18:52:32.496Z,100382.50
2023-05-06T18:54:59.829Z,100394.56
2023-05-06T18:57:27.059Z,100400.78
2023-05-06T18:59:54.115Z,100410.44
2023-05-06T19:02:21.439Z,100418.97
2023-05-06T19:04:48.746Z,100417.06
2023-05-06T19:07:16.293Z,100423.91
2023-05-06T19:09:44.003Z,100412.63
2023-05-06T19:12:11.655Z,100403.59
2023-05-06T19:14:38.830Z,100410.94
2023-05-06T19:17:06.102Z,100409.94
2023-05-06T19:19:33.170Z,100410.56
2023-05-06T19:22:01.986Z,100416.69
2023-05-06T19:24:30.063Z,100424.50
2023-05-06T19:26:57.254Z,100413.94
2023-05-06T19:29:24.397Z,100391.69
2023-05-06T19:31:51.539Z,100413.63
2023-05-06T19:34:18.688Z,100419.63
2023-05-06T19:36:45.800Z,100377.91
2023-05-06T19:39:12.938Z,100414.03
2023-05-06T19:41:40.233Z,100402.41
2023-05-06T19:44:07.291Z,100414.88
2023-05-06T19:46:34.610Z,100416.53
2023-05-06T19:49:01.651Z,100387.94
2023-05-06T19:51:29.054Z,100402.03
2023-05-06T19:53:56.076Z,100412.44
2023-05-06T19:56:23.133Z,100410.66
2023-05-06T19:58:51.212Z,100402.66
2023-05-06T20:01:22.574Z,100401.63
2023-05-06T20:03:50.009Z,100382.81
2023-05-06T20:06:17.377Z,100409.38
2023-05-06T20:08:44.525Z,100408.34
2023-05-06T20:11:11.562Z,100403.59
2023-05-06T20:13:38.765Z,100407.19
2023-05-06T20:16:06.223Z,100402.63
2023-05-06T20:18:33.719Z,100412.06
2023-05-06T20:21:02.355Z,100407.66
2023-05-06T20:23:31.075Z,100414.66
2023-05-06T20:25:58.275Z,100407.66
2023-05-06T20:28:26.585Z,100410.94
2023-05-06T20:30:55.679Z,100414.38
2023-05-06T20:33:22.921Z,100422.06
2023-05-06T20:35:51.078Z,100396.34
2023-05-06T20:38:19.519Z,100420.16
2023-05-06T20:40:47.773Z,100412.97
2023-05-06T20:43:14.810Z,100419.03
2023-05-06T20:45:42.149Z,100421.44
2023-05-06T20:48:09.244Z,100430.13
2023-05-06T20:50:36.372Z,100418.63
2023-05-06T20:53:03.386Z,100407.94
2023-05-06T20:55:30.633Z,100411.44
2023-05-06T20:57:57.729Z,100420.28
2023-05-06T21:00:24.910Z,100423.41
2023-05-06T21:02:52.230Z,100434.53
2023-05-06T21:05:19.678Z,100416.44
2023-05-06T21:07:46.752Z,100409.56
2023-05-06T21:10:14.658Z,100423.56
2023-05-06T21:12:47.805Z,100422.41
2023-05-06T21:15:15.498Z,100439.09
2023-05-06T21:17:43.310Z,100438.13
2023-05-06T21:20:10.928Z,100443.19
2023-05-06T21:22:38.053Z,100416.50
2023-05-06T21:25:05.809Z,100439.47
2023-05-06T21:27:33.053Z,100434.13
2023-05-06T21:30:00.102Z,100432.38
2023-05-06T21:32:33.017Z,100446.34
2023-05-06T21:35:04.188Z,100436.38
2023-05-06T21:37:35.793Z,100447.78
2023-05-06T21:40:04.654Z,100437.78
2023-05-06T21:42:34.336Z,100444.09
2023-05-06T21:45:01.533Z,100450.94
2023-05-06T21:47:31.858Z,100444.00
2023-05-06T21:49:59.156Z,100437.13
2023-05-06T21:52:26.397Z,100441.22
2023-05-06T21:54:53.694Z,100442.16
2023-05-06T21:57:20.838Z,100417.91
2023-05-06T21:59:48.094Z,100439.94
2023-05-06T22:02:15.202Z,100447.81
2023-05-06T22:04:42.565Z,100436.09
2023-05-06T22:07:09.540Z,100451.81
2023-05-06T22:09:36.614Z,100448.13
2023-05-06T22:12:06.814Z,100448.25
2023-05-06T22:14:41.131Z,100444.69
2023-05-06T22:17:10.503Z,100451.59
2023-05-06T22:19:38.625Z,100442.94
2023-05-06T22:22:06.657Z,100440.69
2023-05-06T22:24:34.411Z,100452.13
2023-05-06T22:27:01.848Z,100456.56
2023-05-06T22:29:29.077Z,100456.56
2023-05-06T22:31:56.237Z,100450.25
2023-05-06T22:34:23.268Z,100445.94
2023-05-06T22:36:50.431Z,100453.31
2023-05-06T22:39:17.640Z,100455.81
2023-05-06T22:41:44.916Z,100456.56
2023-05-06T22:44:13.830Z,100449.28
2023-05-06T22:46:41.059Z,100464.84
2023-05-06T22:49:08.429Z,100456.13
2023-05-06T22:51:35.698Z,100446.25
2023-05-06T22:54:02.744Z,100454.94
2023-05-06T22:56:29.798Z,100461.81
2023-05-06T22:58:57.065Z,100457.53
2023-05-06T23:01:26.280Z,100465.22
2023-05-06T23:03:53.672Z,100441.09
2023-05-06T23:06:21.099Z,100460.38
2023-05-06T23:08:48.128Z,100470.91
2023-05-06T23:11:15.168Z,100455.78
2023-05-06T23:13:42.163Z,100469.31
2023-05-06T23:16:10.414Z,100474.50
2023-05-06T23:18:37.805Z,100437.88
2023-05-06T23:21:05.127Z,100481.44
2023-05-06T23:23:32.695Z,100474.63
2023-05-06T23:25:59.819Z,100462.59
2023-05-06T23:28:27.008Z,100457.97
2023-05-06T23:30:54.515Z,100472.75
2023-05-06T23:33:21.604Z,100487.16
2023-05-06T23:35:48.624Z,100472.28
2023-05-06T23:38:15.974Z,100467.75
2023-05-06T23:40:43.006Z,100456.06
2023-05-06T23:43:11.389Z,100469.84
2023-05-06T23:45:38.418Z,100451.22
2023-05-06T23:48:06.037Z,100465.47
2023-05-06T23:50:33.253Z,100462.78
2023-05-06T23:53:00.724Z,100462.56
2023-05-06T23:55:29.077Z,100456.25
2023-05-06T23:57:56.494Z,100473.03
